Time;durP1;ratioP1;P1;durP2;ratioP2;P2;SDS_P1;SDS_P2;PMS_P1;PMS_P2;Temp;Humidity;BMP_temperature;BMP_pressure;BME280_temperature;BME280_humidity;BME280_pressure;Samples;Min_cycle;Max_cycle;Signal;HPM_P1;HPM_P2
2021/10/30 00:01:21;;;;;;;9.68;1.88;;;31.60;25.80;;;;;;5064933;28;20076;-71
2021/10/30 00:03:48;;;;;;;9.80;2.15;;;31.70;36.40;;;;;;5065145;28;20127;-69
2021/10/30 00:06:15;;;;;;;16.95;1.95;;;31.40;26.20;;;;;;5065038;28;20074;-63
2021/10/30 00:08:41;;;;;;;12.90;1.95;;;31.40;26.30;;;;;;5064779;28;20075;-64
2021/10/30 00:11:07;;;;;;;8.63;1.98;;;31.30;26.80;;;;;;5066152;28;20088;-65
2021/10/30 00:13:34;;;;;;;11.25;2.17;;;31.20;27.60;;;;;;5063882;28;20100;-64
2021/10/30 00:16:00;;;;;;;9.35;2.38;;;31.10;28.10;;;;;;5053554;28;20168;-63
2021/10/30 00:18:27;;;;;;;14.23;2.08;;;30.90;27.40;;;;;;5051133;28;20157;-64
2021/10/30 00:20:54;;;;;;;8.35;1.65;;;30.90;27.30;;;;;;5052354;28;20111;-61
2021/10/30 00:23:20;;;;;;;10.77;1.48;;;30.90;27.00;;;;;;5049965;28;20573;-63
2021/10/30 00:25:47;;;;;;;9.20;1.70;;;30.80;26.70;;;;;;5051199;28;20126;-61
2021/10/30 00:28:13;;;;;;;19.77;2.13;;;30.80;27.30;;;;;;5050559;28;20068;-62
2021/10/30 00:30:39;;;;;;;7.82;1.63;;;30.70;28.70;;;;;;5051735;28;20143;-62
2021/10/30 00:33:06;;;;;;;18.80;1.80;;;30.50;29.20;;;;;;5048349;28;20123;-61
2021/10/30 00:35:32;;;;;;;11.63;2.40;;;30.30;28.90;;;;;;5049879;28;20039;-61
2021/10/30 00:37:59;;;;;;;8.85;2.08;;;30.20;29.60;;;;;;5051026;28;20072;-64
2021/10/30 00:40:26;;;;;;;14.57;2.17;;;30.00;30.50;;;;;;5050264;28;20079;-63
2021/10/30 00:42:53;;;;;;;12.93;1.80;;;29.90;30.20;;;;;;5049308;28;20070;-64
2021/10/30 00:45:19;;;;;;;9.68;1.85;;;29.70;30.40;;;;;;5051476;28;20119;-63
2021/10/30 00:47:45;;;;;;;22.13;2.30;;;29.50;29.50;;;;;;5048307;28;20554;-64
2021/10/30 00:50:12;;;;;;;21.33;2.15;;;29.40;30.00;;;;;;5050836;28;20108;-65
2021/10/30 00:52:40;;;;;;;10.68;2.53;;;29.20;30.20;;;;;;5049973;28;20207;-63
2021/10/30 00:55:10;;;;;;;14.82;2.67;;;29.10;30.60;;;;;;5052449;28;20159;-64
2021/10/30 00:57:41;;;;;;;35.25;3.83;;;28.90;31.10;;;;;;5051601;28;20123;-63
2021/10/30 01:00:10;;;;;;;31.02;3.45;;;28.80;31.50;;;;;;5050286;28;20164;-70
2021/10/30 01:02:36;;;;;;;106.78;9.50;;;28.60;32.40;;;;;;5049502;28;20449;-69
2021/10/30 01:05:05;;;;;;;117.75;10.00;;;28.70;32.50;;;;;;5049809;28;20111;-70
2021/10/30 01:07:32;;;;;;;90.75;10.60;;;28.80;32.90;;;;;;5051081;28;20082;-70
2021/10/30 01:09:59;;;;;;;62.85;10.90;;;29.00;33.10;;;;;;5051991;28;20115;-70
2021/10/30 01:12:26;;;;;;;52.42;6.95;;;29.30;33.00;;;;;;5048773;28;20107;-71
2021/10/30 01:14:53;;;;;;;33.08;5.05;;;29.50;33.70;;;;;;5043340;28;20565;-72
2021/10/30 01:17:20;;;;;;;29.40;4.20;;;29.30;33.30;;;;;;5048077;28;20081;-67
2021/10/30 01:19:54;;;;;;;23.77;3.83;;;29.10;33.40;;;;;;5050503;28;20080;-69
2021/10/30 01:22:22;;;;;;;31.00;3.92;;;28.90;33.10;;;;;;5047571;28;20088;-69
2021/10/30 01:24:49;;;;;;;30.75;4.45;;;28.70;33.70;;;;;;5049669;28;20093;-69
2021/10/30 01:27:21;;;;;;;24.60;3.95;;;28.70;33.60;;;;;;5046978;28;20085;-67
2021/10/30 01:29:51;;;;;;;20.27;3.10;;;29.10;39.70;;;;;;5048001;28;20078;-69
2021/10/30 01:32:19;;;;;;;26.88;4.00;;;28.70;32.90;;;;;;5049976;28;20127;-69
2021/10/30 01:34:46;;;;;;;26.13;3.63;;;28.80;32.90;;;;;;5047398;28;20585;-68
2021/10/30 01:37:14;;;;;;;36.33;4.60;;;28.40;37.90;;;;;;5048049;28;20085;-69
2021/10/30 01:39:41;;;;;;;27.42;4.50;;;28.30;65.80;;;;;;5047333;28;20032;-70
2021/10/30 01:42:07;;;;;;;38.28;3.92;;;28.40;34.10;;;;;;5047202;28;20081;-70
2021/10/30 01:44:35;;;;;;;18.60;4.70;;;28.30;34.10;;;;;;5048409;28;20184;-68
2021/10/30 01:47:02;;;;;;;25.50;4.05;;;28.20;33.90;;;;;;5048838;28;20557;-69
2021/10/30 01:49:30;;;;;;;31.83;3.35;;;28.30;34.30;;;;;;5046800;28;20077;-66
2021/10/30 01:51:56;;;;;;;23.65;3.05;;;28.20;33.50;;;;;;5047139;28;20131;-69
2021/10/30 01:54:23;;;;;;;17.15;3.22;;;28.00;34.10;;;;;;5046622;28;20100;-68
2021/10/30 01:56:50;;;;;;;24.80;3.55;;;28.10;34.40;;;;;;5047035;28;20093;-68
2021/10/30 01:59:16;;;;;;;24.83;3.42;;;28.10;34.50;;;;;;5049145;28;20165;-67
2021/10/30 02:01:42;;;;;;;26.00;3.42;;;28.00;34.90;;;;;;5048886;28;20080;-70
2021/10/30 02:04:09;;;;;;;22.38;3.08;;;27.90;35.10;;;;;;5048548;28;20101;-69
2021/10/30 02:06:35;;;;;;;15.63;2.75;;;27.80;34.80;;;;;;5047754;28;20092;-69
2021/10/30 02:09:02;;;;;;;14.27;2.42;;;27.60;35.00;;;;;;5048025;28;20121;-68
2021/10/30 02:11:28;;;;;;;22.58;2.78;;;27.70;35.60;;;;;;5048015;28;20499;-70
2021/10/30 02:13:55;;;;;;;20.20;3.03;;;27.70;35.30;;;;;;5047702;28;20826;-71
2021/10/30 02:16:21;;;;;;;28.80;3.28;;;27.50;35.20;;;;;;5049287;28;20524;-72
2021/10/30 02:18:47;;;;;;;20.67;3.90;;;27.30;35.10;;;;;;5047955;28;20176;-70
2021/10/30 02:21:14;;;;;;;22.77;2.97;;;27.30;35.70;;;;;;5046824;28;20089;-71
2021/10/30 02:23:40;;;;;;;33.78;4.57;;;27.40;35.50;;;;;;5047673;28;20097;-69
2021/10/30 02:26:06;;;;;;;39.50;4.88;;;27.20;35.50;;;;;;5047162;28;20089;-68
2021/10/30 02:28:33;;;;;;;25.92;3.78;;;27.10;35.60;;;;;;5047427;28;20081;-70
2021/10/30 02:30:59;;;;;;;29.45;4.95;;;27.20;36.20;;;;;;5047322;28;20184;-69
2021/10/30 02:33:26;;;;;;;40.72;4.65;;;27.30;36.50;;;;;;5046674;28;20093;-70
2021/10/30 02:35:52;;;;;;;29.45;5.50;;;27.20;36.20;;;;;;5048660;28;20988;-69
2021/10/30 02:38:19;;;;;;;21.58;4.32;;;27.00;36.70;;;;;;5050947;28;20172;-68
2021/10/30 02:40:45;;;;;;;47.30;6.40;;;27.00;36.90;;;;;;5048776;28;20087;-69
2021/10/30 02:43:11;;;;;;;55.03;7.15;;;27.20;36.40;;;;;;5047512;28;20571;-70
2021/10/30 02:45:38;;;;;;;67.10;8.30;;;26.80;37.10;;;;;;5050267;28;20077;-69
2021/10/30 02:48:05;;;;;;;82.35;11.70;;;26.60;36.60;;;;;;5050197;28;20147;-69
2021/10/30 02:50:31;;;;;;;67.05;10.52;;;26.50;37.00;;;;;;5048709;28;20435;-68
2021/10/30 02:52:58;;;;;;;61.83;11.13;;;26.60;37.00;;;;;;5049750;28;20100;-69
2021/10/30 02:55:24;;;;;;;90.63;12.10;;;26.80;36.90;;;;;;5049242;28;20412;-70
2021/10/30 02:57:52;;;;;;;81.22;11.63;;;26.90;36.20;;;;;;5048022;28;20105;-70
2021/10/30 03:00:18;;;;;;;91.65;12.07;;;26.70;36.80;;;;;;5049080;28;20127;-71
2021/10/30 03:02:45;;;;;;;88.00;12.63;;;26.80;36.90;;;;;;5048643;28;20078;-69
2021/10/30 03:05:12;;;;;;;80.43;12.52;;;26.80;36.20;;;;;;5048356;28;20074;-69
2021/10/30 03:07:39;;;;;;;105.65;14.65;;;26.70;36.80;;;;;;5049750;28;20065;-71
2021/10/30 03:10:06;;;;;;;101.22;13.60;;;26.90;36.20;;;;;;5050866;28;20093;-71
2021/10/30 03:12:33;;;;;;;100.32;14.45;;;26.60;37.50;;;;;;5048712;28;20072;-70
2021/10/30 03:14:59;;;;;;;113.57;16.02;;;26.30;38.40;;;;;;5048817;28;20073;-69
2021/10/30 03:17:26;;;;;;;101.88;15.65;;;26.30;38.80;;;;;;5048311;28;20146;-69
2021/10/30 03:19:52;;;;;;;109.00;15.55;;;26.30;38.90;;;;;;5050222;28;20070;-71
2021/10/30 03:22:20;;;;;;;103.85;16.23;;;26.30;38.70;;;;;;5048171;28;20074;-68
2021/10/30 03:24:46;;;;;;;108.30;14.93;;;26.30;38.30;;;;;;5047548;28;20189;-70
2021/10/30 03:27:13;;;;;;;109.95;16.05;;;26.40;38.10;;;;;;5049134;28;20536;-71
2021/10/30 03:29:39;;;;;;;109.05;17.95;;;26.30;38.20;;;;;;5062132;28;20549;-70
2021/10/30 03:32:06;;;;;;;116.70;19.38;;;26.20;38.40;;;;;;5052027;28;20085;-69
2021/10/30 03:34:32;;;;;;;104.85;19.50;;;26.30;38.00;;;;;;5046066;28;20077;-70
2021/10/30 03:36:58;;;;;;;124.50;20.33;;;26.30;38.00;;;;;;5048699;28;20231;-71
2021/10/30 03:39:25;;;;;;;132.48;22.90;;;26.30;37.70;;;;;;5046656;28;20085;-72
2021/10/30 03:41:51;;;;;;;137.05;20.15;;;26.50;37.70;;;;;;5046776;28;20109;-72
2021/10/30 03:44:18;;;;;;;112.50;20.25;;;26.00;38.40;;;;;;5044580;28;20168;-71
2021/10/30 03:46:44;;;;;;;90.60;20.25;;;25.90;39.40;;;;;;5048035;28;20078;-69
2021/10/30 03:49:10;;;;;;;108.65;21.33;;;25.80;39.30;;;;;;5047792;28;20078;-71
2021/10/30 03:51:37;;;;;;;114.70;20.67;;;25.80;40.10;;;;;;5050151;28;20555;-70
2021/10/30 03:54:04;;;;;;;127.90;22.48;;;25.60;40.80;;;;;;5053433;28;20168;-69
2021/10/30 03:56:30;;;;;;;123.25;22.92;;;25.70;40.80;;;;;;5051224;28;20077;-68
2021/10/30 03:58:56;;;;;;;121.72;22.40;;;25.50;40.90;;;;;;5050899;28;20104;-69
2021/10/30 04:01:23;;;;;;;123.38;22.25;;;25.30;41.10;;;;;;5052630;28;20086;-69
2021/10/30 04:03:49;;;;;;;115.85;22.50;;;25.20;41.80;;;;;;5051416;28;20567;-67
2021/10/30 04:06:16;;;;;;;118.30;22.25;;;25.10;41.60;;;;;;5051990;28;20097;-70
2021/10/30 04:08:44;;;;;;;138.23;24.10;;;25.20;41.60;;;;;;5051547;28;20069;-69
2021/10/30 04:11:11;;;;;;;123.03;24.60;;;25.10;41.70;;;;;;5052992;28;20081;-72
2021/10/30 04:13:37;;;;;;;143.43;24.25;;;25.10;41.20;;;;;;5034870;28;20103;-70
2021/10/30 04:16:04;;;;;;;119.72;24.00;;;25.00;41.60;;;;;;5051859;28;20082;-72
2021/10/30 04:18:30;;;;;;;118.18;23.30;;;24.90;41.80;;;;;;5051022;28;20073;-70
2021/10/30 04:20:57;;;;;;;134.35;25.25;;;24.70;41.70;;;;;;5051583;28;20100;-70
2021/10/30 04:23:23;;;;;;;112.85;22.52;;;24.70;42.10;;;;;;5051164;28;20089;-70
2021/10/30 04:25:49;;;;;;;134.90;28.20;;;24.70;42.90;;;;;;5051671;28;20496;-69
2021/10/30 04:28:16;;;;;;;143.70;31.10;;;24.50;40.30;;;;;;5053356;28;20073;-70
2021/10/30 04:30:42;;;;;;;162.60;32.88;;;24.60;40.80;;;;;;5039450;28;20094;-71
2021/10/30 04:33:13;;;;;;;160.07;33.15;;;24.60;40.80;;;;;;5050679;28;20077;-70
2021/10/30 04:35:41;;;;;;;165.60;35.22;;;24.60;40.80;;;;;;5050083;28;20604;-69
2021/10/30 04:38:08;;;;;;;183.82;35.97;;;24.70;40.90;;;;;;5052169;28;20376;-67
2021/10/30 04:40:35;;;;;;;142.10;36.20;;;24.70;40.50;;;;;;5051675;28;20077;-69
2021/10/30 04:43:02;;;;;;;187.90;37.75;;;24.60;40.80;;;;;;5050034;28;20109;-69
2021/10/30 04:45:28;;;;;;;176.30;37.40;;;24.50;41.00;;;;;;5050083;28;20111;-67
2021/10/30 04:47:54;;;;;;;180.68;37.97;;;24.40;41.10;;;;;;5050941;28;20161;-68
2021/10/30 04:50:21;;;;;;;182.60;37.97;;;24.30;41.00;;;;;;5051565;28;20080;-68
2021/10/30 04:52:47;;;;;;;154.95;37.30;;;24.40;41.40;;;;;;5049807;28;20523;-68
2021/10/30 04:55:14;;;;;;;185.10;36.67;;;24.30;41.70;;;;;;5050676;28;20085;-70
2021/10/30 04:57:40;;;;;;;160.27;34.40;;;24.30;41.30;;;;;;5051818;28;20070;-68
2021/10/30 05:00:07;;;;;;;172.18;37.20;;;24.20;41.90;;;;;;5066370;28;20080;-69
2021/10/30 05:02:33;;;;;;;164.68;35.33;;;24.40;41.50;;;;;;5050363;28;20073;-69
2021/10/30 05:05:00;;;;;;;177.40;38.10;;;24.30;41.90;;;;;;5049661;28;20145;-69
2021/10/30 05:07:26;;;;;;;144.65;34.70;;;24.30;42.50;;;;;;5051510;28;20081;-68
2021/10/30 05:09:52;;;;;;;161.02;37.08;;;24.30;42.30;;;;;;5049973;28;20127;-68
2021/10/30 05:12:19;;;;;;;157.25;37.20;;;24.20;42.70;;;;;;5049063;28;20127;-68
2021/10/30 05:14:45;;;;;;;171.88;38.08;;;24.20;42.20;;;;;;5050302;28;20527;-67
2021/10/30 05:17:12;;;;;;;170.82;38.42;;;24.10;42.80;;;;;;5050646;28;20582;-69
2021/10/30 05:19:38;;;;;;;161.05;39.10;;;24.10;43.20;;;;;;5049071;28;20124;-68
2021/10/30 05:22:04;;;;;;;157.13;36.53;;;24.10;43.10;;;;;;5051854;28;20156;-68
2021/10/30 05:24:31;;;;;;;175.95;40.50;;;24.20;43.50;;;;;;5050778;28;20085;-70
2021/10/30 05:26:57;;;;;;;173.48;39.22;;;24.10;43.10;;;;;;5050394;28;20131;-69
2021/10/30 05:29:24;;;;;;;162.57;39.88;;;24.20;42.90;;;;;;5060264;28;20069;-69
2021/10/30 05:31:50;;;;;;;197.23;42.38;;;24.10;43.60;;;;;;5059046;28;20102;-69
2021/10/30 05:34:16;;;;;;;186.63;40.65;;;23.90;44.00;;;;;;5049412;28;20193;-69
2021/10/30 05:36:43;;;;;;;182.07;42.95;;;23.90;44.90;;;;;;5049015;28;20073;-70
2021/10/30 05:39:16;;;;;;;160.25;40.28;;;23.80;44.00;;;;;;5049861;28;20074;-71
2021/10/30 05:41:44;;;;;;;139.32;38.30;;;23.90;44.00;;;;;;5050195;28;20093;-68
2021/10/30 05:44:11;;;;;;;160.57;40.45;;;23.80;44.00;;;;;;5049576;28;20172;-70
2021/10/30 05:46:38;;;;;;;171.90;44.33;;;23.70;43.80;;;;;;5049351;28;20073;-70
2021/10/30 05:49:09;;;;;;;190.07;42.78;;;23.70;43.20;;;;;;5049442;28;20069;-69
2021/10/30 05:51:36;;;;;;;166.15;41.22;;;23.60;44.10;;;;;;5048350;28;20086;-69
2021/10/30 05:54:03;;;;;;;160.27;41.63;;;23.60;44.10;;;;;;5049050;28;20609;-70
2021/10/30 05:56:30;;;;;;;169.10;41.85;;;23.60;43.60;;;;;;5031830;28;20226;-73
2021/10/30 05:58:56;;;;;;;165.70;41.35;;;23.50;43.80;;;;;;5047158;28;20073;-63
2021/10/30 06:01:23;;;;;;;170.88;39.58;;;23.50;44.10;;;;;;5048227;28;20093;-64
2021/10/30 06:03:49;;;;;;;176.43;39.63;;;23.50;44.70;;;;;;5048703;28;20162;-65
2021/10/30 06:06:16;;;;;;;162.23;39.42;;;23.50;44.30;;;;;;5047061;28;20073;-64
2021/10/30 06:08:42;;;;;;;188.48;41.67;;;23.50;44.20;;;;;;5050437;28;20195;-65
2021/10/30 06:11:09;;;;;;;159.68;36.67;;;23.50;44.40;;;;;;5046394;28;20108;-67
2021/10/30 06:13:35;;;;;;;152.20;37.38;;;23.50;44.40;;;;;;5048717;28;20097;-67
2021/10/30 06:16:02;;;;;;;170.15;38.35;;;23.40;44.50;;;;;;5049769;28;20070;-66
2021/10/30 06:18:28;;;;;;;150.50;39.20;;;23.30;44.70;;;;;;5048526;28;20109;-68
2021/10/30 06:20:54;;;;;;;146.07;34.63;;;23.30;44.80;;;;;;5048907;28;20077;-65
2021/10/30 06:23:21;;;;;;;144.60;34.63;;;23.20;48.20;;;;;;5048549;28;20414;-64
2021/10/30 06:25:47;;;;;;;136.35;34.42;;;23.40;84.30;;;;;;5048429;28;20052;-67
2021/10/30 06:28:14;;;;;;;158.48;35.47;;;23.40;65.20;;;;;;5047917;28;20021;-66
2021/10/30 06:30:40;;;;;;;159.88;34.38;;;23.00;46.00;;;;;;5047534;28;20066;-67
2021/10/30 06:33:07;;;;;;;142.15;32.97;;;;;;;;;;5017240;28;20083;-65
2021/10/30 06:35:34;;;;;;;134.98;33.30;;;22.70;60.00;;;;;;5034254;28;20021;-67
2021/10/30 06:38:00;;;;;;;158.60;34.20;;;22.90;86.60;;;;;;5048682;28;20100;-68
2021/10/30 06:40:27;;;;;;;136.63;35.13;;;22.90;46.80;;;;;;5048762;28;20084;-66
2021/10/30 06:42:53;;;;;;;143.02;34.47;;;22.90;47.10;;;;;;5048208;28;20628;-64
2021/10/30 06:45:19;;;;;;;125.72;30.90;;;22.80;47.20;;;;;;5046576;28;20527;-65
2021/10/30 06:47:46;;;;;;;122.78;29.27;;;22.90;70.30;;;;;;5051051;28;20120;-66
2021/10/30 06:50:20;;;;;;;127.95;30.55;;;22.80;46.90;;;;;;5050577;28;20069;-67
2021/10/30 06:52:49;;;;;;;131.23;29.00;;;22.90;46.50;;;;;;5047574;28;20081;-66
2021/10/30 06:55:16;;;;;;;127.85;32.22;;;22.80;47.00;;;;;;5047156;28;20073;-66
2021/10/30 06:57:43;;;;;;;130.60;34.25;;;22.80;47.20;;;;;;5048451;28;20443;-67
2021/10/30 07:00:10;;;;;;;124.65;37.70;;;22.70;47.00;;;;;;5048446;28;20119;-68
2021/10/30 07:02:37;;;;;;;158.20;42.92;;;22.60;47.00;;;;;;5031894;28;20535;-67
2021/10/30 07:05:04;;;;;;;172.10;67.13;;;22.50;47.60;;;;;;5046763;28;20144;-68
2021/10/30 07:07:31;;;;;;;168.20;58.03;;;22.40;47.00;;;;;;5031816;28;20077;-68
2021/10/30 07:10:00;;;;;;;164.43;61.45;;;22.50;47.50;;;;;;5031738;28;20089;-68
2021/10/30 07:12:33;;;;;;;166.35;64.32;;;22.50;47.90;;;;;;5031901;28;20083;-66
2021/10/30 07:14:59;;;;;;;165.90;60.20;;;22.40;48.10;;;;;;5032174;28;20081;-67
2021/10/30 07:17:26;;;;;;;164.60;56.95;;;22.40;47.80;;;;;;5046314;28;20077;-67
2021/10/30 07:19:54;;;;;;;151.68;55.13;;;22.30;47.40;;;;;;5046243;28;20112;-67
2021/10/30 07:22:21;;;;;;;150.18;52.72;;;22.30;48.60;;;;;;5048388;28;20404;-66
2021/10/30 07:24:47;;;;;;;140.73;46.30;;;22.20;47.70;;;;;;5047685;28;20131;-67
2021/10/30 07:27:16;;;;;;;169.98;46.90;;;22.20;47.80;;;;;;5035703;28;20519;-67
2021/10/30 07:29:46;;;;;;;153.50;43.25;;;22.20;48.30;;;;;;5035113;28;20442;-68
2021/10/30 07:32:13;;;;;;;156.18;42.72;;;22.50;48.50;;;;;;5050252;28;20116;-67
2021/10/30 07:34:40;;;;;;;145.80;41.80;;;22.20;48.50;;;;;;5055199;28;20120;-63
2021/10/30 07:37:06;;;;;;;147.77;37.65;;;22.10;48.60;;;;;;5018264;28;20078;-68
2021/10/30 07:39:34;;;;;;;132.07;32.67;;;22.10;48.40;;;;;;5034255;28;20531;-66
2021/10/30 07:42:02;;;;;;;112.32;31.10;;;22.10;48.60;;;;;;5035274;28;20085;-68
2021/10/30 07:44:29;;;;;;;108.70;28.95;;;22.10;47.90;;;;;;5050523;28;20569;-68
2021/10/30 07:46:55;;;;;;;97.10;30.77;;;22.10;47.50;;;;;;5051261;28;20070;-69
2021/10/30 07:49:22;;;;;;;121.22;35.72;;;22.10;47.70;;;;;;5035223;28;20126;-68
2021/10/30 07:51:49;;;;;;;129.88;34.28;;;22.00;47.60;;;;;;5050227;28;20196;-68
2021/10/30 07:54:16;;;;;;;118.90;31.25;;;21.80;70.00;;;;;;5052863;28;20097;-68
2021/10/30 07:56:43;;;;;;;118.72;30.48;;;;;;;;;;5034447;28;20061;-69
2021/10/30 07:59:09;;;;;;;114.13;29.92;;;21.90;49.50;;;;;;5049783;28;20045;-66
2021/10/30 08:01:36;;;;;;;130.40;29.00;;;22.00;48.10;;;;;;5034738;28;20160;-66
2021/10/30 08:04:02;;;;;;;100.38;26.88;;;21.80;87.80;;;;;;5050431;28;20041;-68
2021/10/30 08:06:29;;;;;;;108.70;27.90;;;22.00;49.30;;;;;;5050504;28;20077;-65
2021/10/30 08:08:55;;;;;;;100.10;27.63;;;21.80;49.10;;;;;;5017364;28;20122;-68
2021/10/30 08:11:21;;;;;;;108.45;29.35;;;21.80;49.10;;;;;;5050485;28;20084;-68
2021/10/30 08:13:48;;;;;;;105.20;30.60;;;21.80;49.40;;;;;;5050094;28;20551;-68
2021/10/30 08:16:14;;;;;;;116.70;30.67;;;21.80;49.70;;;;;;5051819;28;20082;-68
2021/10/30 08:18:41;;;;;;;112.70;31.45;;;21.70;49.90;;;;;;5052960;28;20102;-67
2021/10/30 08:21:07;;;;;;;106.57;31.33;;;21.70;50.20;;;;;;5050784;28;20435;-67
2021/10/30 08:23:33;;;;;;;117.35;30.20;;;21.80;49.90;;;;;;5050773;28;20164;-69
2021/10/30 08:26:00;;;;;;;112.03;30.65;;;21.60;50.20;;;;;;5049720;28;20093;-67
2021/10/30 08:28:26;;;;;;;122.03;30.52;;;21.60;49.90;;;;;;5034442;28;20077;-66
2021/10/30 08:30:53;;;;;;;111.47;28.73;;;21.60;50.40;;;;;;5051373;28;20093;-67
2021/10/30 08:33:19;;;;;;;107.35;27.90;;;21.60;51.00;;;;;;5051060;28;20615;-66
2021/10/30 08:35:45;;;;;;;123.28;27.38;;;21.60;50.80;;;;;;5051763;28;20097;-69
2021/10/30 08:38:13;;;;;;;123.72;27.67;;;21.60;71.30;;;;;;5052250;28;20159;-69
2021/10/30 08:40:43;;;;;;;110.43;29.17;;;21.50;51.80;;;;;;5050565;28;20080;-67
2021/10/30 08:43:20;;;;;;;103.03;26.63;;;21.40;52.00;;;;;;5049045;28;20093;-68
2021/10/30 08:45:49;;;;;;;87.70;25.05;;;21.40;52.00;;;;;;5050856;28;20077;-68
2021/10/30 08:48:17;;;;;;;98.07;24.73;;;21.30;52.30;;;;;;5050774;28;20451;-69
2021/10/30 08:50:44;;;;;;;87.20;22.73;;;21.30;52.30;;;;;;5049529;28;20076;-69
2021/10/30 08:53:10;;;;;;;94.00;20.90;;;21.30;52.80;;;;;;5049804;28;20153;-68
2021/10/30 08:55:37;;;;;;;87.10;21.42;;;21.10;52.80;;;;;;5050020;28;20523;-66
2021/10/30 08:58:12;;;;;;;94.47;21.80;;;21.10;53.20;;;;;;5033511;28;20084;-68
2021/10/30 09:00:42;;;;;;;82.45;21.10;;;21.00;52.90;;;;;;5052024;28;20097;-73
2021/10/30 09:03:10;;;;;;;71.30;18.98;;;20.80;85.00;;;;;;5053952;28;20140;-69
2021/10/30 09:05:38;;;;;;;76.38;20.80;;;20.70;52.80;;;;;;5034359;28;20135;-69
2021/10/30 09:08:07;;;;;;;62.67;20.52;;;20.60;52.70;;;;;;5035461;28;20084;-71
2021/10/30 09:10:43;;;;;;;76.40;19.35;;;20.60;53.10;;;;;;5032359;28;20113;-66
2021/10/30 09:13:11;;;;;;;82.35;22.10;;;20.60;53.50;;;;;;5048709;28;20119;-69
2021/10/30 09:15:38;;;;;;;100.22;22.58;;;20.60;53.50;;;;;;5049581;28;20084;-69
2021/10/30 09:18:41;;;;;;;94.43;22.48;;;20.50;53.50;;;;;;5034436;28;20066;-68
2021/10/30 09:21:14;;;;;;;91.72;21.40;;;20.50;53.70;;;;;;5049834;28;20089;-67
2021/10/30 09:23:53;;;;;;;94.65;23.23;;;20.40;54.40;;;;;;5033101;28;20085;-68
2021/10/30 09:26:25;;;;;;;108.85;24.38;;;20.40;54.20;;;;;;5051477;28;20077;-69
2021/10/30 09:28:57;;;;;;;111.63;27.48;;;20.40;54.10;;;;;;5016478;28;20070;-68
2021/10/30 09:31:27;;;;;;;125.10;31.88;;;20.30;53.90;;;;;;5052477;28;20435;-66
2021/10/30 09:33:56;;;;;;;121.35;29.73;;;20.30;52.70;;;;;;5050434;28;20096;-65
2021/10/30 09:36:33;;;;;;;139.50;34.33;;;20.40;53.50;;;;;;5051437;28;20086;-70
2021/10/30 09:39:02;;;;;;;158.38;39.67;;;20.40;53.00;;;;;;5036549;28;20107;-68
2021/10/30 09:41:37;;;;;;;159.52;40.55;;;20.30;52.60;;;;;;5050235;28;20135;-69
2021/10/30 09:44:05;;;;;;;167.45;43.78;;;20.30;52.20;;;;;;5033179;28;20093;-69
2021/10/30 09:46:34;;;;;;;166.82;41.33;;;20.30;52.10;;;;;;5050625;28;20074;-70
2021/10/30 09:49:28;;;;;;;180.27;46.08;;;20.40;52.40;;;;;;5032856;28;20577;-67
2021/10/30 09:52:09;;;;;;;161.25;44.30;;;20.30;52.30;;;;;;5047972;28;20070;-67
2021/10/30 09:54:41;;;;;;;158.35;47.65;;;20.30;51.80;;;;;;5032715;28;20077;-66
2021/10/30 09:57:12;;;;;;;157.90;47.22;;;20.30;52.00;;;;;;5049132;28;20566;-68
2021/10/30 09:59:40;;;;;;;176.40;51.22;;;20.20;52.00;;;;;;5050497;28;20082;-67
2021/10/30 10:02:08;;;;;;;191.15;51.33;;;20.20;51.60;;;;;;5050006;28;20961;-68
2021/10/30 10:04:37;;;;;;;193.35;50.35;;;20.20;51.40;;;;;;5048406;28;20529;-68
2021/10/30 10:07:06;;;;;;;173.77;49.53;;;20.20;51.50;;;;;;5049056;28;20144;-70
2021/10/30 10:09:33;;;;;;;170.20;48.88;;;20.10;50.90;;;;;;5017275;28;20073;-67
2021/10/30 10:12:00;;;;;;;155.63;47.97;;;20.00;50.80;;;;;;5050006;28;20497;-68
2021/10/30 10:14:28;;;;;;;186.75;51.42;;;19.90;50.80;;;;;;5048911;28;20127;-68
2021/10/30 10:16:55;;;;;;;173.80;50.47;;;19.90;51.00;;;;;;5048703;28;20215;-68
2021/10/30 10:19:23;;;;;;;165.77;48.20;;;19.90;51.50;;;;;;5048594;28;20096;-68
2021/10/30 10:21:52;;;;;;;176.65;49.17;;;19.90;51.60;;;;;;5031654;28;20077;-70
2021/10/30 10:24:26;;;;;;;165.25;48.92;;;19.90;51.00;;;;;;5047958;28;20086;-69
2021/10/30 10:26:55;;;;;;;178.07;46.20;;;19.80;50.20;;;;;;5046958;28;20103;-69
2021/10/30 10:29:53;;;;;;;156.48;47.47;;;19.90;49.40;;;;;;5048862;28;20070;-68
2021/10/30 10:32:26;;;;;;;151.68;46.78;;;19.80;50.30;;;;;;5047297;28;20990;-69
2021/10/30 10:35:02;;;;;;;145.85;43.55;;;19.80;50.30;;;;;;5047306;28;20139;-68
2021/10/30 10:37:28;;;;;;;145.77;40.88;;;19.80;50.10;;;;;;5048417;28;20088;-70
2021/10/30 10:39:57;;;;;;;;;;;19.80;50.00;;;;;;5032706;28;20080;-68
2021/10/30 10:42:40;;;;;;;148.98;40.05;;;19.90;50.30;;;;;;5048458;28;19957;-68
2021/10/30 10:45:16;;;;;;;144.27;37.00;;;19.90;50.20;;;;;;5047023;28;20089;-67
2021/10/30 10:47:44;;;;;;;145.75;38.80;;;19.90;49.60;;;;;;5031274;28;20084;-69
2021/10/30 10:50:13;;;;;;;154.27;37.97;;;19.80;49.40;;;;;;5048826;28;20470;-68
2021/10/30 10:53:02;;;;;;;156.95;37.30;;;19.70;49.30;;;;;;5048125;28;20085;-68
2021/10/30 10:55:29;;;;;;;129.07;36.08;;;19.80;49.30;;;;;;5047769;28;20074;-67
2021/10/30 10:58:10;;;;;;;140.75;35.78;;;19.70;49.60;;;;;;5048794;28;20070;-68
2021/10/30 11:00:37;;;;;;;116.95;32.47;;;19.80;49.50;;;;;;5031334;28;20551;-69
2021/10/30 11:03:04;;;;;;;113.47;32.80;;;19.80;49.70;;;;;;5048026;28;20101;-66
2021/10/30 11:05:35;;;;;;;125.53;32.50;;;19.80;49.50;;;;;;5047636;28;20074;-69
2021/10/30 11:08:23;;;;;;;120.13;31.55;;;19.80;48.90;;;;;;5017970;28;20525;-69
2021/10/30 11:11:20;;;;;;;125.57;31.77;;;19.70;48.60;;;;;;5047548;28;20529;-68
2021/10/30 11:13:53;;;;;;;118.38;30.20;;;19.70;49.10;;;;;;5046220;28;20132;-69
2021/10/30 11:16:44;;;;;;;121.38;30.98;;;19.70;48.90;;;;;;5047744;28;20911;-69
2021/10/30 11:19:22;;;;;;;112.47;30.83;;;19.70;49.30;;;;;;5048256;28;20147;-70
2021/10/30 11:21:54;;;;;;;100.07;30.77;;;19.60;48.90;;;;;;5045559;28;20661;-69
2021/10/30 11:24:24;;;;;;;108.32;28.77;;;19.60;49.00;;;;;;5047814;28;20764;-69
2021/10/30 11:27:04;;;;;;;103.50;26.60;;;19.60;49.10;;;;;;5031072;28;20069;-68
2021/10/30 11:29:31;;;;;;;108.22;26.95;;;19.50;48.50;;;;;;5015567;28;20164;-68
2021/10/30 11:32:00;;;;;;;113.35;27.13;;;19.50;48.30;;;;;;5047330;28;20151;-68
2021/10/30 11:34:27;;;;;;;99.32;26.98;;;19.50;48.50;;;;;;5047265;28;20069;-68
2021/10/30 11:36:58;;;;;;;98.90;25.27;;;19.50;48.60;;;;;;5046475;28;20089;-68
2021/10/30 11:39:31;;;;;;;123.45;26.90;;;19.40;48.40;;;;;;5047291;28;20420;-69
2021/10/30 11:42:01;;;;;;;96.68;26.08;;;19.50;49.20;;;;;;5015246;28;20111;-69
2021/10/30 11:44:27;;;;;;;88.20;28.08;;;19.40;48.90;;;;;;5047471;28;20539;-68
2021/10/30 11:46:55;;;;;;;;;;;19.40;49.50;;;;;;5031873;28;20174;-67
2021/10/30 11:49:26;;;;;;;;;;;19.40;48.70;;;;;;5047977;28;20022;-66
2021/10/30 11:51:59;;;;;;;113.05;29.80;;;19.40;49.20;;;;;;5046499;28;20334;-67
2021/10/30 11:54:25;;;;;;;93.75;29.10;;;19.40;48.90;;;;;;5047269;28;20084;-67
2021/10/30 11:56:52;;;;;;;;;;;19.40;49.10;;;;;;5048605;28;20144;-69
2021/10/30 11:59:18;;;;;;;88.57;28.85;;;19.50;49.10;;;;;;5048870;28;19957;-68
2021/10/30 12:01:47;;;;;;;107.28;27.83;;;19.50;49.50;;;;;;5047244;28;20078;-69
2021/10/30 12:04:24;;;;;;;97.13;29.75;;;19.50;49.30;;;;;;5047505;28;20138;-69
2021/10/30 12:07:00;;;;;;;105.35;28.63;;;19.50;49.60;;;;;;5031291;28;20516;-68
2021/10/30 12:09:37;;;;;;;105.30;29.88;;;19.50;50.40;;;;;;5048654;28;20080;-69
2021/10/30 12:12:12;;;;;;;92.85;27.42;;;19.50;50.00;;;;;;5033614;28;20070;-68
2021/10/30 12:14:41;;;;;;;102.47;28.02;;;19.50;50.40;;;;;;5050631;28;20077;-67
2021/10/30 12:17:07;;;;;;;83.10;29.10;;;19.50;50.80;;;;;;5051344;28;20172;-67
2021/10/30 12:19:36;;;;;;;95.15;31.67;;;19.40;50.80;;;;;;5051622;28;20069;-67
2021/10/30 12:22:10;;;;;;;107.82;32.13;;;19.40;50.70;;;;;;5051255;28;20085;-68
2021/10/30 12:24:39;;;;;;;95.43;29.40;;;19.40;50.20;;;;;;5034098;28;20190;-68
2021/10/30 12:27:07;;;;;;;109.93;31.60;;;19.30;50.50;;;;;;5055133;28;20076;-66
2021/10/30 12:29:44;;;;;;;125.40;31.60;;;19.30;51.00;;;;;;5051288;28;20080;-69
2021/10/30 12:32:14;;;;;;;102.85;32.00;;;19.30;51.10;;;;;;5050434;28;20074;-68